sensor_id;sensor_type;location;lat;lon;timestamp;P1;durP1;ratioP1;P2;durP2;ratioP2
27209;SDS011;14721;42.668;23.386;2024-02-14T00:26:29;7.37;;;4.07;;
27209;SDS011;14721;42.668;23.386;2024-02-14T00:41:19;7.67;;;3.93;;
27209;SDS011;14721;42.668;23.386;2024-02-14T00:44:17;8.37;;;4.10;;
27209;SDS011;14721;42.668;23.386;2024-02-14T00:49:41;7.87;;;4.20;;
27209;SDS011;14721;42.668;23.386;2024-02-14T00:52:24;6.30;;;2.87;;
27209;SDS011;14721;42.668;23.386;2024-02-14T01:05:01;6.67;;;3.10;;
27209;SDS011;14721;42.668;23.386;2024-02-14T01:17:59;6.67;;;4.13;;
27209;SDS011;14721;42.668;23.386;2024-02-14T01:20:36;6.90;;;3.90;;
27209;SDS011;14721;42.668;23.386;2024-02-14T01:23:11;5.77;;;3.37;;
27209;SDS011;14721;42.668;23.386;2024-02-14T01:25:50;7.30;;;3.87;;
27209;SDS011;14721;42.668;23.386;2024-02-14T01:31:47;8.53;;;4.30;;
27209;SDS011;14721;42.668;23.386;2024-02-14T01:37:53;12.30;;;4.40;;
27209;SDS011;14721;42.668;23.386;2024-02-14T01:40:37;8.63;;;4.20;;
27209;SDS011;14721;42.668;23.386;2024-02-14T02:06:04;8.60;;;4.67;;
27209;SDS011;14721;42.668;23.386;2024-02-14T02:08:56;8.23;;;4.60;;
27209;SDS011;14721;42.668;23.386;2024-02-14T02:27:37;10.77;;;4.70;;
27209;SDS011;14721;42.668;23.386;2024-02-14T02:33:05;11.23;;;5.00;;
27209;SDS011;14721;42.668;23.386;2024-02-14T02:35:43;10.37;;;4.30;;
27209;SDS011;14721;42.668;23.386;2024-02-14T02:38:15;9.37;;;4.93;;
27209;SDS011;14721;42.668;23.386;2024-02-14T02:40:52;9.13;;;4.87;;
27209;SDS011;14721;42.668;23.386;2024-02-14T02:43:53;9.23;;;4.07;;
27209;SDS011;14721;42.668;23.386;2024-02-14T02:46:42;8.90;;;5.30;;
27209;SDS011;14721;42.668;23.386;2024-02-14T02:49:33;10.53;;;4.90;;
27209;SDS011;14721;42.668;23.386;2024-02-14T02:52:10;7.67;;;3.83;;
27209;SDS011;14721;42.668;23.386;2024-02-14T02:55:14;10.97;;;4.57;;
27209;SDS011;14721;42.668;23.386;2024-02-14T02:58:21;9.00;;;4.30;;
27209;SDS011;14721;42.668;23.386;2024-02-14T03:09:00;9.47;;;4.63;;
27209;SDS011;14721;42.668;23.386;2024-02-14T03:11:42;9.30;;;4.87;;
27209;SDS011;14721;42.668;23.386;2024-02-14T03:14:23;7.70;;;4.70;;
27209;SDS011;14721;42.668;23.386;2024-02-14T03:17:14;9.93;;;4.30;;
27209;SDS011;14721;42.668;23.386;2024-02-14T03:20:07;8.80;;;4.73;;
27209;SDS011;14721;42.668;23.386;2024-02-14T03:23:01;9.40;;;4.10;;
27209;SDS011;14721;42.668;23.386;2024-02-14T03:26:02;10.77;;;5.13;;
27209;SDS011;14721;42.668;23.386;2024-02-14T03:28:55;14.27;;;5.70;;
27209;SDS011;14721;42.668;23.386;2024-02-14T03:34:17;4.50;;;2.27;;
27209;SDS011;14721;42.668;23.386;2024-02-14T03:40:34;10.67;;;4.77;;
27209;SDS011;14721;42.668;23.386;2024-02-14T03:50:01;9.47;;;5.20;;
27209;SDS011;14721;42.668;23.386;2024-02-14T03:52:29;9.63;;;4.90;;
27209;SDS011;14721;42.668;23.386;2024-02-14T03:55:00;11.13;;;6.20;;
27209;SDS011;14721;42.668;23.386;2024-02-14T03:57:28;8.57;;;5.17;;
27209;SDS011;14721;42.668;23.386;2024-02-14T03:59:59;13.23;;;5.33;;
27209;SDS011;14721;42.668;23.386;2024-02-14T04:02:30;11.67;;;5.77;;
27209;SDS011;14721;42.668;23.386;2024-02-14T04:05:23;11.47;;;5.23;;
27209;SDS011;14721;42.668;23.386;2024-02-14T04:07:58;7.60;;;4.90;;
27209;SDS011;14721;42.668;23.386;2024-02-14T04:10:28;10.73;;;6.10;;
27209;SDS011;14721;42.668;23.386;2024-02-14T04:13:38;11.40;;;5.13;;
27209;SDS011;14721;42.668;23.386;2024-02-14T04:16:29;9.97;;;4.17;;
27209;SDS011;14721;42.668;23.386;2024-02-14T04:19:26;14.10;;;5.50;;
27209;SDS011;14721;42.668;23.386;2024-02-14T04:24:35;11.23;;;6.03;;
27209;SDS011;14721;42.668;23.386;2024-02-14T04:27:24;11.17;;;5.77;;
27209;SDS011;14721;42.668;23.386;2024-02-14T04:30:23;12.10;;;5.03;;
27209;SDS011;14721;42.668;23.386;2024-02-14T04:32:52;11.00;;;4.90;;
27209;SDS011;14721;42.668;23.386;2024-02-14T04:35:50;16.50;;;6.50;;
27209;SDS011;14721;42.668;23.386;2024-02-14T04:38:32;11.83;;;6.37;;
27209;SDS011;14721;42.668;23.386;2024-02-14T04:44:19;11.13;;;6.30;;
27209;SDS011;14721;42.668;23.386;2024-02-14T04:46:47;10.77;;;6.13;;
27209;SDS011;14721;42.668;23.386;2024-02-14T04:49:24;8.27;;;5.00;;
27209;SDS011;14721;42.668;23.386;2024-02-14T04:52:10;16.57;;;6.80;;
27209;SDS011;14721;42.668;23.386;2024-02-14T04:54:54;11.43;;;6.27;;
27209;SDS011;14721;42.668;23.386;2024-02-14T04:57:21;16.90;;;6.77;;
27209;SDS011;14721;42.668;23.386;2024-02-14T04:59:52;10.33;;;5.57;;
27209;SDS011;14721;42.668;23.386;2024-02-14T05:03:04;11.43;;;6.40;;
27209;SDS011;14721;42.668;23.386;2024-02-14T05:06:04;12.67;;;7.03;;
27209;SDS011;14721;42.668;23.386;2024-02-14T05:11:34;14.27;;;7.13;;
27209;SDS011;14721;42.668;23.386;2024-02-14T05:14:38;13.83;;;7.10;;
27209;SDS011;14721;42.668;23.386;2024-02-14T05:17:17;13.07;;;7.60;;
27209;SDS011;14721;42.668;23.386;2024-02-14T05:23:57;9.87;;;4.73;;
27209;SDS011;14721;42.668;23.386;2024-02-14T05:27:05;18.97;;;8.23;;
27209;SDS011;14721;42.668;23.386;2024-02-14T05:29:37;15.40;;;7.83;;
27209;SDS011;14721;42.668;23.386;2024-02-14T05:32:05;13.43;;;6.23;;
27209;SDS011;14721;42.668;23.386;2024-02-14T05:34:39;14.53;;;7.37;;
27209;SDS011;14721;42.668;23.386;2024-02-14T05:37:07;14.97;;;7.50;;
27209;SDS011;14721;42.668;23.386;2024-02-14T05:39:33;15.83;;;7.13;;
27209;SDS011;14721;42.668;23.386;2024-02-14T05:41:59;20.50;;;8.70;;
27209;SDS011;14721;42.668;23.386;2024-02-14T05:44:24;15.70;;;7.87;;
27209;SDS011;14721;42.668;23.386;2024-02-14T05:46:52;13.07;;;6.50;;
27209;SDS011;14721;42.668;23.386;2024-02-14T05:49:18;15.23;;;7.87;;
27209;SDS011;14721;42.668;23.386;2024-02-14T05:51:43;13.80;;;7.17;;
27209;SDS011;14721;42.668;23.386;2024-02-14T05:54:09;13.40;;;7.00;;
27209;SDS011;14721;42.668;23.386;2024-02-14T05:56:35;13.50;;;6.50;;
27209;SDS011;14721;42.668;23.386;2024-02-14T05:59:01;13.67;;;6.30;;
27209;SDS011;14721;42.668;23.386;2024-02-14T06:01:27;14.70;;;7.57;;
27209;SDS011;14721;42.668;23.386;2024-02-14T06:03:53;16.13;;;8.37;;
27209;SDS011;14721;42.668;23.386;2024-02-14T06:06:19;15.13;;;7.67;;
27209;SDS011;14721;42.668;23.386;2024-02-14T06:08:49;9.07;;;4.83;;
27209;SDS011;14721;42.668;23.386;2024-02-14T06:11:14;15.43;;;7.80;;
27209;SDS011;14721;42.668;23.386;2024-02-14T06:13:41;15.63;;;7.73;;
27209;SDS011;14721;42.668;23.386;2024-02-14T06:16:06;13.53;;;7.27;;
27209;SDS011;14721;42.668;23.386;2024-02-14T06:18:33;18.90;;;7.97;;
27209;SDS011;14721;42.668;23.386;2024-02-14T06:21:00;17.27;;;7.67;;
27209;SDS011;14721;42.668;23.386;2024-02-14T06:23:25;16.40;;;6.90;;
27209;SDS011;14721;42.668;23.386;2024-02-14T06:25:53;13.20;;;7.17;;
27209;SDS011;14721;42.668;23.386;2024-02-14T06:28:19;13.20;;;7.13;;
27209;SDS011;14721;42.668;23.386;2024-02-14T06:30:44;14.83;;;7.03;;
27209;SDS011;14721;42.668;23.386;2024-02-14T06:33:10;15.33;;;8.30;;
27209;SDS011;14721;42.668;23.386;2024-02-14T06:35:35;15.33;;;7.70;;
27209;SDS011;14721;42.668;23.386;2024-02-14T06:38:05;11.93;;;6.03;;
27209;SDS011;14721;42.668;23.386;2024-02-14T06:40:33;17.77;;;8.03;;
27209;SDS011;14721;42.668;23.386;2024-02-14T06:42:59;12.77;;;6.90;;
27209;SDS011;14721;42.668;23.386;2024-02-14T06:45:28;13.70;;;6.70;;
27209;SDS011;14721;42.668;23.386;2024-02-14T06:47:54;12.23;;;6.80;;
27209;SDS011;14721;42.668;23.386;2024-02-14T06:50:19;13.60;;;7.40;;
27209;SDS011;14721;42.668;23.386;2024-02-14T06:52:45;11.90;;;7.03;;
27209;SDS011;14721;42.668;23.386;2024-02-14T06:55:11;12.23;;;6.40;;
27209;SDS011;14721;42.668;23.386;2024-02-14T06:57:36;13.17;;;6.77;;
27209;SDS011;14721;42.668;23.386;2024-02-14T07:00:03;13.50;;;6.63;;
27209;SDS011;14721;42.668;23.386;2024-02-14T07:02:31;14.53;;;6.57;;
27209;SDS011;14721;42.668;23.386;2024-02-14T07:05:04;13.27;;;6.90;;
27209;SDS011;14721;42.668;23.386;2024-02-14T07:07:32;5.47;;;3.63;;
27209;SDS011;14721;42.668;23.386;2024-02-14T07:09:57;8.93;;;3.57;;
27209;SDS011;14721;42.668;23.386;2024-02-14T07:12:23;11.60;;;5.70;;
27209;SDS011;14721;42.668;23.386;2024-02-14T07:14:48;10.80;;;6.07;;
27209;SDS011;14721;42.668;23.386;2024-02-14T07:17:14;9.27;;;5.27;;
27209;SDS011;14721;42.668;23.386;2024-02-14T07:19:39;7.00;;;4.00;;
27209;SDS011;14721;42.668;23.386;2024-02-14T07:22:07;9.73;;;5.30;;
27209;SDS011;14721;42.668;23.386;2024-02-14T07:24:34;4.17;;;1.97;;
27209;SDS011;14721;42.668;23.386;2024-02-14T07:26:59;11.30;;;5.80;;
27209;SDS011;14721;42.668;23.386;2024-02-14T07:29:25;11.90;;;5.07;;
27209;SDS011;14721;42.668;23.386;2024-02-14T07:31:51;11.77;;;5.80;;
27209;SDS011;14721;42.668;23.386;2024-02-14T07:34:16;10.67;;;5.67;;
27209;SDS011;14721;42.668;23.386;2024-02-14T07:36:42;10.87;;;5.77;;
27209;SDS011;14721;42.668;23.386;2024-02-14T07:39:11;15.80;;;6.00;;
27209;SDS011;14721;42.668;23.386;2024-02-14T07:41:36;10.20;;;5.43;;
27209;SDS011;14721;42.668;23.386;2024-02-14T07:44:02;11.40;;;5.13;;
27209;SDS011;14721;42.668;23.386;2024-02-14T07:46:27;10.73;;;5.63;;
27209;SDS011;14721;42.668;23.386;2024-02-14T07:48:54;10.13;;;5.93;;
27209;SDS011;14721;42.668;23.386;2024-02-14T07:51:20;8.77;;;5.10;;
27209;SDS011;14721;42.668;23.386;2024-02-14T07:53:46;9.47;;;5.57;;
27209;SDS011;14721;42.668;23.386;2024-02-14T07:56:11;13.60;;;5.03;;
27209;SDS011;14721;42.668;23.386;2024-02-14T07:58:37;9.27;;;4.77;;
27209;SDS011;14721;42.668;23.386;2024-02-14T08:01:02;10.60;;;6.07;;
27209;SDS011;14721;42.668;23.386;2024-02-14T08:03:29;9.57;;;5.00;;
27209;SDS011;14721;42.668;23.386;2024-02-14T08:05:54;9.20;;;4.57;;
27209;SDS011;14721;42.668;23.386;2024-02-14T08:08:20;5.33;;;3.17;;
27209;SDS011;14721;42.668;23.386;2024-02-14T08:10:46;6.13;;;3.47;;
27209;SDS011;14721;42.668;23.386;2024-02-14T08:13:11;8.30;;;4.07;;
27209;SDS011;14721;42.668;23.386;2024-02-14T08:15:40;10.97;;;5.67;;
27209;SDS011;14721;42.668;23.386;2024-02-14T08:18:06;5.83;;;3.50;;
27209;SDS011;14721;42.668;23.386;2024-02-14T08:20:32;8.03;;;4.47;;
27209;SDS011;14721;42.668;23.386;2024-02-14T08:22:57;8.40;;;4.57;;
27209;SDS011;14721;42.668;23.386;2024-02-14T08:25:23;8.67;;;4.70;;
27209;SDS011;14721;42.668;23.386;2024-02-14T08:27:48;9.47;;;4.77;;
27209;SDS011;14721;42.668;23.386;2024-02-14T08:30:14;7.67;;;4.90;;
27209;SDS011;14721;42.668;23.386;2024-02-14T08:32:40;11.43;;;4.50;;
27209;SDS011;14721;42.668;23.386;2024-02-14T08:35:05;13.93;;;5.33;;
27209;SDS011;14721;42.668;23.386;2024-02-14T08:37:32;9.50;;;4.10;;
27209;SDS011;14721;42.668;23.386;2024-02-14T08:39:58;10.43;;;5.63;;
27209;SDS011;14721;42.668;23.386;2024-02-14T08:42:23;13.00;;;5.87;;
27209;SDS011;14721;42.668;23.386;2024-02-14T08:44:48;12.30;;;4.80;;
27209;SDS011;14721;42.668;23.386;2024-02-14T08:47:14;8.07;;;4.00;;
27209;SDS011;14721;42.668;23.386;2024-02-14T08:49:44;6.80;;;4.30;;
27209;SDS011;14721;42.668;23.386;2024-02-14T08:52:09;9.27;;;3.77;;
27209;SDS011;14721;42.668;23.386;2024-02-14T08:54:35;12.30;;;5.60;;
27209;SDS011;14721;42.668;23.386;2024-02-14T08:57:01;10.30;;;4.70;;
27209;SDS011;14721;42.668;23.386;2024-02-14T08:59:28;11.33;;;4.70;;
27209;SDS011;14721;42.668;23.386;2024-02-14T09:01:54;8.67;;;5.47;;
27209;SDS011;14721;42.668;23.386;2024-02-14T09:04:22;9.40;;;5.43;;
27209;SDS011;14721;42.668;23.386;2024-02-14T09:06:48;11.13;;;4.97;;
27209;SDS011;14721;42.668;23.386;2024-02-14T09:09:13;11.43;;;5.23;;
27209;SDS011;14721;42.668;23.386;2024-02-14T09:11:40;11.73;;;5.00;;
27209;SDS011;14721;42.668;23.386;2024-02-14T09:14:06;10.93;;;4.17;;
27209;SDS011;14721;42.668;23.386;2024-02-14T09:16:35;7.13;;;3.77;;
27209;SDS011;14721;42.668;23.386;2024-02-14T09:19:00;10.70;;;4.73;;
27209;SDS011;14721;42.668;23.386;2024-02-14T09:21:28;8.60;;;4.93;;
27209;SDS011;14721;42.668;23.386;2024-02-14T09:23:54;11.70;;;5.30;;
27209;SDS011;14721;42.668;23.386;2024-02-14T09:26:22;9.33;;;4.47;;
27209;SDS011;14721;42.668;23.386;2024-02-14T09:28:48;11.80;;;4.80;;
27209;SDS011;14721;42.668;23.386;2024-02-14T09:31:17;9.90;;;4.20;;
27209;SDS011;14721;42.668;23.386;2024-02-14T09:33:51;7.67;;;4.17;;
27209;SDS011;14721;42.668;23.386;2024-02-14T09:36:21;11.87;;;4.70;;
27209;SDS011;14721;42.668;23.386;2024-02-14T09:38:47;8.30;;;4.10;;
27209;SDS011;14721;42.668;23.386;2024-02-14T09:41:56;10.33;;;4.87;;
27209;SDS011;14721;42.668;23.386;2024-02-14T09:44:04;8.53;;;4.67;;
27209;SDS011;14721;42.668;23.386;2024-02-14T09:46:30;10.53;;;4.90;;
27209;SDS011;14721;42.668;23.386;2024-02-14T09:48:56;10.60;;;5.40;;
27209;SDS011;14721;42.668;23.386;2024-02-14T09:51:27;11.70;;;4.27;;
27209;SDS011;14721;42.668;23.386;2024-02-14T09:53:57;7.13;;;4.80;;
27209;SDS011;14721;42.668;23.386;2024-02-14T09:56:27;7.30;;;4.50;;
27209;SDS011;14721;42.668;23.386;2024-02-14T09:58:53;6.63;;;3.57;;
27209;SDS011;14721;42.668;23.386;2024-02-14T10:01:23;9.73;;;5.37;;
27209;SDS011;14721;42.668;23.386;2024-02-14T10:03:53;6.63;;;3.50;;
27209;SDS011;14721;42.668;23.386;2024-02-14T10:06:19;7.70;;;5.47;;
27209;SDS011;14721;42.668;23.386;2024-02-14T10:08:49;9.77;;;5.13;;
27209;SDS011;14721;42.668;23.386;2024-02-14T10:11:17;9.50;;;4.93;;
27209;SDS011;14721;42.668;23.386;2024-02-14T10:13:46;8.07;;;4.77;;
27209;SDS011;14721;42.668;23.386;2024-02-14T10:16:13;9.23;;;4.47;;
27209;SDS011;14721;42.668;23.386;2024-02-14T10:18:39;7.17;;;3.77;;
27209;SDS011;14721;42.668;23.386;2024-02-14T10:21:14;8.23;;;3.97;;
27209;SDS011;14721;42.668;23.386;2024-02-14T10:23:42;7.20;;;2.70;;
27209;SDS011;14721;42.668;23.386;2024-02-14T10:26:23;7.43;;;4.87;;
27209;SDS011;14721;42.668;23.386;2024-02-14T10:28:49;7.30;;;3.53;;
27209;SDS011;14721;42.668;23.386;2024-02-14T10:31:16;9.50;;;4.57;;
27209;SDS011;14721;42.668;23.386;2024-02-14T10:36:42;6.60;;;2.90;;
27209;SDS011;14721;42.668;23.386;2024-02-14T10:39:34;11.23;;;5.37;;
27209;SDS011;14721;42.668;23.386;2024-02-14T10:42:31;8.03;;;4.60;;
27209;SDS011;14721;42.668;23.386;2024-02-14T10:45:18;11.87;;;4.50;;
27209;SDS011;14721;42.668;23.386;2024-02-14T10:50:57;6.73;;;3.77;;
27209;SDS011;14721;42.668;23.386;2024-02-14T10:53:35;9.50;;;4.70;;
27209;SDS011;14721;42.668;23.386;2024-02-14T10:59:40;6.33;;;3.13;;
27209;SDS011;14721;42.668;23.386;2024-02-14T11:02:09;8.37;;;4.73;;
27209;SDS011;14721;42.668;23.386;2024-02-14T11:04:35;6.90;;;2.03;;
27209;SDS011;14721;42.668;23.386;2024-02-14T11:07:02;8.87;;;4.47;;
27209;SDS011;14721;42.668;23.386;2024-02-14T11:09:32;6.23;;;3.50;;
27209;SDS011;14721;42.668;23.386;2024-02-14T11:12:00;14.03;;;5.23;;
27209;SDS011;14721;42.668;23.386;2024-02-14T11:14:29;10.53;;;4.43;;
27209;SDS011;14721;42.668;23.386;2024-02-14T11:16:59;8.70;;;4.27;;
27209;SDS011;14721;42.668;23.386;2024-02-14T11:19:34;8.03;;;4.10;;
27209;SDS011;14721;42.668;23.386;2024-02-14T11:22:13;8.80;;;4.40;;
27209;SDS011;14721;42.668;23.386;2024-02-14T11:24:45;6.93;;;3.13;;
27209;SDS011;14721;42.668;23.386;2024-02-14T11:27:10;8.40;;;4.60;;
27209;SDS011;14721;42.668;23.386;2024-02-14T11:29:38;9.77;;;5.53;;
27209;SDS011;14721;42.668;23.386;2024-02-14T11:32:17;8.73;;;3.67;;
27209;SDS011;14721;42.668;23.386;2024-02-14T11:34:54;8.37;;;3.40;;
27209;SDS011;14721;42.668;23.386;2024-02-14T11:37:27;8.67;;;3.53;;
27209;SDS011;14721;42.668;23.386;2024-02-14T11:39:53;6.90;;;3.30;;
27209;SDS011;14721;42.668;23.386;2024-02-14T11:42:21;9.67;;;4.70;;
27209;SDS011;14721;42.668;23.386;2024-02-14T11:44:47;11.53;;;4.87;;
27209;SDS011;14721;42.668;23.386;2024-02-14T11:47:12;8.37;;;4.63;;
27209;SDS011;14721;42.668;23.386;2024-02-14T11:49:38;7.23;;;3.67;;
27209;SDS011;14721;42.668;23.386;2024-02-14T11:52:12;8.97;;;4.57;;
27209;SDS011;14721;42.668;23.386;2024-02-14T11:54:39;8.30;;;4.43;;
27209;SDS011;14721;42.668;23.386;2024-02-14T11:57:04;11.50;;;4.40;;
27209;SDS011;14721;42.668;23.386;2024-02-14T11:59:31;8.90;;;4.30;;
27209;SDS011;14721;42.668;23.386;2024-02-14T12:01:59;8.83;;;4.33;;
27209;SDS011;14721;42.668;23.386;2024-02-14T12:04:27;8.47;;;4.63;;
27209;SDS011;14721;42.668;23.386;2024-02-14T12:06:53;6.17;;;3.13;;
27209;SDS011;14721;42.668;23.386;2024-02-14T12:09:19;8.13;;;4.33;;
27209;SDS011;14721;42.668;23.386;2024-02-14T12:11:46;8.70;;;4.50;;
27209;SDS011;14721;42.668;23.386;2024-02-14T12:14:11;6.80;;;3.57;;
27209;SDS011;14721;42.668;23.386;2024-02-14T12:16:39;11.30;;;5.43;;
27209;SDS011;14721;42.668;23.386;2024-02-14T12:19:08;9.00;;;4.33;;
27209;SDS011;14721;42.668;23.386;2024-02-14T12:21:38;11.50;;;3.37;;
27209;SDS011;14721;42.668;23.386;2024-02-14T12:26:32;7.27;;;4.17;;
27209;SDS011;14721;42.668;23.386;2024-02-14T12:29:04;7.97;;;4.30;;
27209;SDS011;14721;42.668;23.386;2024-02-14T12:31:32;8.47;;;3.87;;
27209;SDS011;14721;42.668;23.386;2024-02-14T12:33:58;8.90;;;4.77;;
27209;SDS011;14721;42.668;23.386;2024-02-14T12:36:27;8.30;;;4.43;;
27209;SDS011;14721;42.668;23.386;2024-02-14T12:38:54;8.50;;;4.20;;
27209;SDS011;14721;42.668;23.386;2024-02-14T12:41:38;9.90;;;4.67;;
27209;SDS011;14721;42.668;23.386;2024-02-14T12:44:05;8.73;;;4.40;;
27209;SDS011;14721;42.668;23.386;2024-02-14T12:46:32;9.67;;;4.60;;
27209;SDS011;14721;42.668;23.386;2024-02-14T12:48:58;7.97;;;4.33;;
27209;SDS011;14721;42.668;23.386;2024-02-14T12:51:24;10.07;;;4.70;;
27209;SDS011;14721;42.668;23.386;2024-02-14T12:53:53;9.37;;;4.67;;
27209;SDS011;14721;42.668;23.386;2024-02-14T12:56:19;9.87;;;4.30;;
27209;SDS011;14721;42.668;23.386;2024-02-14T12:58:44;7.03;;;4.23;;
27209;SDS011;14721;42.668;23.386;2024-02-14T13:01:11;10.57;;;4.67;;
27209;SDS011;14721;42.668;23.386;2024-02-14T13:03:37;8.47;;;4.53;;
27209;SDS011;14721;42.668;23.386;2024-02-14T13:06:03;11.40;;;4.43;;
27209;SDS011;14721;42.668;23.386;2024-02-14T13:08:28;9.80;;;4.37;;
27209;SDS011;14721;42.668;23.386;2024-02-14T13:10:57;8.50;;;4.07;;
27209;SDS011;14721;42.668;23.386;2024-02-14T13:13:23;9.90;;;4.53;;
27209;SDS011;14721;42.668;23.386;2024-02-14T13:15:48;6.37;;;3.50;;
27209;SDS011;14721;42.668;23.386;2024-02-14T13:18:14;8.83;;;4.47;;
27209;SDS011;14721;42.668;23.386;2024-02-14T13:20:41;10.10;;;4.80;;
27209;SDS011;14721;42.668;23.386;2024-02-14T13:23:09;9.63;;;4.10;;
27209;SDS011;14721;42.668;23.386;2024-02-14T13:25:36;10.23;;;4.43;;
27209;SDS011;14721;42.668;23.386;2024-02-14T13:28:04;9.67;;;4.70;;
27209;SDS011;14721;42.668;23.386;2024-02-14T13:30:31;8.20;;;4.10;;
27209;SDS011;14721;42.668;23.386;2024-02-14T13:32:58;4.90;;;2.33;;
27209;SDS011;14721;42.668;23.386;2024-02-14T13:35:23;10.43;;;3.50;;
27209;SDS011;14721;42.668;23.386;2024-02-14T13:37:49;9.10;;;4.23;;
27209;SDS011;14721;42.668;23.386;2024-02-14T13:40:15;9.10;;;4.57;;
27209;SDS011;14721;42.668;23.386;2024-02-14T13:42:43;9.17;;;4.10;;
27209;SDS011;14721;42.668;23.386;2024-02-14T13:45:08;6.77;;;4.50;;
27209;SDS011;14721;42.668;23.386;2024-02-14T13:47:37;7.97;;;3.90;;
27209;SDS011;14721;42.668;23.386;2024-02-14T13:50:09;8.37;;;4.67;;
27209;SDS011;14721;42.668;23.386;2024-02-14T13:52:44;7.57;;;4.10;;
27209;SDS011;14721;42.668;23.386;2024-02-14T13:55:20;8.37;;;5.07;;
27209;SDS011;14721;42.668;23.386;2024-02-14T13:57:45;11.43;;;4.30;;
27209;SDS011;14721;42.668;23.386;2024-02-14T14:00:30;10.27;;;4.63;;
27209;SDS011;14721;42.668;23.386;2024-02-14T14:02:58;11.53;;;4.87;;
27209;SDS011;14721;42.668;23.386;2024-02-14T14:05:23;10.60;;;5.07;;
27209;SDS011;14721;42.668;23.386;2024-02-14T14:10:30;9.70;;;4.53;;
27209;SDS011;14721;42.668;23.386;2024-02-14T14:13:07;9.17;;;4.13;;
27209;SDS011;14721;42.668;23.386;2024-02-14T14:16:03;9.20;;;4.20;;
27209;SDS011;14721;42.668;23.386;2024-02-14T14:18:39;8.87;;;4.93;;
27209;SDS011;14721;42.668;23.386;2024-02-14T14:21:08;9.97;;;4.07;;
27209;SDS011;14721;42.668;23.386;2024-02-14T14:23:37;7.80;;;3.50;;
27209;SDS011;14721;42.668;23.386;2024-02-14T14:26:03;8.27;;;3.90;;
27209;SDS011;14721;42.668;23.386;2024-02-14T14:28:45;10.03;;;4.37;;
27209;SDS011;14721;42.668;23.386;2024-02-14T14:31:24;10.23;;;4.90;;
27209;SDS011;14721;42.668;23.386;2024-02-14T14:34:32;13.87;;;5.60;;
27209;SDS011;14721;42.668;23.386;2024-02-14T14:37:01;13.87;;;4.70;;
27209;SDS011;14721;42.668;23.386;2024-02-14T14:39:29;10.77;;;4.83;;
27209;SDS011;14721;42.668;23.386;2024-02-14T14:42:01;9.43;;;4.77;;
27209;SDS011;14721;42.668;23.386;2024-02-14T14:44:32;7.83;;;4.40;;
27209;SDS011;14721;42.668;23.386;2024-02-14T14:47:17;12.00;;;5.00;;
27209;SDS011;14721;42.668;23.386;2024-02-14T14:49:45;8.40;;;4.33;;
27209;SDS011;14721;42.668;23.386;2024-02-14T14:52:10;8.83;;;4.10;;
27209;SDS011;14721;42.668;23.386;2024-02-14T14:54:36;10.60;;;5.07;;
27209;SDS011;14721;42.668;23.386;2024-02-14T14:57:01;12.40;;;4.80;;
27209;SDS011;14721;42.668;23.386;2024-02-14T14:59:39;7.40;;;4.50;;
27209;SDS011;14721;42.668;23.386;2024-02-14T15:02:06;5.77;;;3.60;;
27209;SDS011;14721;42.668;23.386;2024-02-14T15:04:32;10.67;;;4.10;;
27209;SDS011;14721;42.668;23.386;2024-02-14T15:06:59;9.27;;;3.83;;
27209;SDS011;14721;42.668;23.386;2024-02-14T15:09:27;7.97;;;4.07;;
27209;SDS011;14721;42.668;23.386;2024-02-14T15:11:55;7.70;;;3.83;;
27209;SDS011;14721;42.668;23.386;2024-02-14T15:14:22;6.90;;;3.50;;
27209;SDS011;14721;42.668;23.386;2024-02-14T15:16:47;10.30;;;4.57;;
27209;SDS011;14721;42.668;23.386;2024-02-14T15:19:13;11.53;;;4.23;;
27209;SDS011;14721;42.668;23.386;2024-02-14T15:21:39;7.37;;;3.53;;
27209;SDS011;14721;42.668;23.386;2024-02-14T15:24:06;5.23;;;3.10;;
27209;SDS011;14721;42.668;23.386;2024-02-14T15:26:34;5.00;;;3.07;;
27209;SDS011;14721;42.668;23.386;2024-02-14T15:29:42;6.73;;;3.27;;
27209;SDS011;14721;42.668;23.386;2024-02-14T15:32:37;7.43;;;3.80;;
27209;SDS011;14721;42.668;23.386;2024-02-14T15:35:21;8.57;;;3.57;;
27209;SDS011;14721;42.668;23.386;2024-02-14T15:37:50;6.57;;;3.27;;
27209;SDS011;14721;42.668;23.386;2024-02-14T15:40:35;11.57;;;4.90;;
27209;SDS011;14721;42.668;23.386;2024-02-14T15:43:24;7.47;;;3.20;;
27209;SDS011;14721;42.668;23.386;2024-02-14T15:46:12;12.10;;;4.37;;
27209;SDS011;14721;42.668;23.386;2024-02-14T15:48:44;8.63;;;3.80;;
27209;SDS011;14721;42.668;23.386;2024-02-14T15:51:19;9.63;;;3.07;;
27209;SDS011;14721;42.668;23.386;2024-02-14T15:53:55;10.70;;;3.97;;
27209;SDS011;14721;42.668;23.386;2024-02-14T15:56:24;10.23;;;3.27;;
27209;SDS011;14721;42.668;23.386;2024-02-14T15:58:49;7.83;;;3.27;;
27209;SDS011;14721;42.668;23.386;2024-02-14T16:01:15;7.43;;;3.53;;
27209;SDS011;14721;42.668;23.386;2024-02-14T16:03:42;9.60;;;3.23;;
27209;SDS011;14721;42.668;23.386;2024-02-14T16:06:07;7.97;;;3.90;;
27209;SDS011;14721;42.668;23.386;2024-02-14T16:08:33;6.57;;;3.63;;
27209;SDS011;14721;42.668;23.386;2024-02-14T16:11:00;6.57;;;2.90;;
27209;SDS011;14721;42.668;23.386;2024-02-14T16:13:26;5.60;;;3.13;;
27209;SDS011;14721;42.668;23.386;2024-02-14T16:15:53;5.23;;;2.70;;
27209;SDS011;14721;42.668;23.386;2024-02-14T16:18:20;9.03;;;4.20;;
27209;SDS011;14721;42.668;23.386;2024-02-14T16:20:45;7.57;;;4.00;;
27209;SDS011;14721;42.668;23.386;2024-02-14T16:23:13;8.03;;;3.63;;
27209;SDS011;14721;42.668;23.386;2024-02-14T16:25:49;3.57;;;2.17;;
27209;SDS011;14721;42.668;23.386;2024-02-14T16:28:22;2.30;;;1.40;;
27209;SDS011;14721;42.668;23.386;2024-02-14T16:30:50;8.73;;;3.60;;
27209;SDS011;14721;42.668;23.386;2024-02-14T16:33:19;8.13;;;3.60;;
27209;SDS011;14721;42.668;23.386;2024-02-14T16:35:49;5.67;;;3.03;;
27209;SDS011;14721;42.668;23.386;2024-02-14T16:38:14;6.23;;;2.83;;
27209;SDS011;14721;42.668;23.386;2024-02-14T16:40:40;5.80;;;3.03;;
27209;SDS011;14721;42.668;23.386;2024-02-14T16:43:06;7.30;;;2.50;;
27209;SDS011;14721;42.668;23.386;2024-02-14T16:45:41;8.27;;;3.40;;
27209;SDS011;14721;42.668;23.386;2024-02-14T16:48:07;5.80;;;3.17;;
27209;SDS011;14721;42.668;23.386;2024-02-14T16:50:38;11.13;;;4.27;;
27209;SDS011;14721;42.668;23.386;2024-02-14T16:53:04;5.57;;;2.67;;
27209;SDS011;14721;42.668;23.386;2024-02-14T16:55:29;8.20;;;3.40;;
27209;SDS011;14721;42.668;23.386;2024-02-14T16:57:55;6.73;;;3.10;;
27209;SDS011;14721;42.668;23.386;2024-02-14T17:00:26;7.93;;;2.87;;
27209;SDS011;14721;42.668;23.386;2024-02-14T17:02:54;8.97;;;3.17;;
27209;SDS011;14721;42.668;23.386;2024-02-14T17:05:22;7.53;;;3.53;;
27209;SDS011;14721;42.668;23.386;2024-02-14T17:07:48;10.00;;;3.90;;
27209;SDS011;14721;42.668;23.386;2024-02-14T17:10:13;8.73;;;3.13;;
27209;SDS011;14721;42.668;23.386;2024-02-14T17:12:39;8.47;;;4.00;;
27209;SDS011;14721;42.668;23.386;2024-02-14T17:15:12;7.67;;;4.00;;
27209;SDS011;14721;42.668;23.386;2024-02-14T17:17:37;6.53;;;3.30;;
27209;SDS011;14721;42.668;23.386;2024-02-14T17:20:04;12.90;;;4.57;;
27209;SDS011;14721;42.668;23.386;2024-02-14T17:22:36;7.17;;;3.33;;
27209;SDS011;14721;42.668;23.386;2024-02-14T17:25:03;8.07;;;3.87;;
27209;SDS011;14721;42.668;23.386;2024-02-14T17:27:33;8.10;;;3.37;;
27209;SDS011;14721;42.668;23.386;2024-02-14T17:29:59;12.60;;;3.87;;
27209;SDS011;14721;42.668;23.386;2024-02-14T17:32:24;10.77;;;3.93;;